Time;durP1;ratioP1;P1;durP2;ratioP2;P2;SDS_P1;SDS_P2;PMS_P1;PMS_P2;Temp;Humidity;BMP_temperature;BMP_pressure;BME280_temperature;BME280_humidity;BME280_pressure;Samples;Min_cycle;Max_cycle;Signal;HPM_P1;HPM_P2
2022/06/12 00:01:12;;;;;;;9.30;5.03;;;20.30;52.90;;;;;;5053593;27;20568;-72
2022/06/12 00:03:40;;;;;;;9.90;4.65;;;20.30;52.90;;;;;;5024879;27;20033;-71
2022/06/12 00:06:06;;;;;;;9.93;4.55;;;20.30;53.00;;;;;;5035089;27;20161;-71
2022/06/12 00:08:35;;;;;;;15.60;5.22;;;20.30;53.10;;;;;;5034773;27;20035;-71
2022/06/12 00:11:03;;;;;;;7.70;3.13;;;20.30;53.10;;;;;;5037534;27;20113;-71
2022/06/12 00:13:48;;;;;;;17.25;4.45;;;20.30;52.90;;;;;;5059754;27;20484;-71
2022/06/12 00:16:16;;;;;;;11.73;4.18;;;20.30;52.80;;;;;;5031918;27;20759;-70
2022/06/12 00:18:43;;;;;;;8.43;3.65;;;20.30;52.90;;;;;;5037348;27;20020;-71
2022/06/12 00:21:10;;;;;;;7.85;3.88;;;20.30;52.80;;;;;;5026854;27;20044;-72
2022/06/12 00:23:43;;;;;;;8.60;4.53;;;20.30;52.80;;;;;;5040762;27;20036;-72
2022/06/12 00:26:13;;;;;;;11.63;4.50;;;20.30;52.60;;;;;;5028962;27;20041;-72
2022/06/12 00:28:40;;;;;;;12.20;3.97;;;20.30;52.50;;;;;;5028672;27;20133;-71
2022/06/12 00:31:06;;;;;;;8.80;3.83;;;20.30;52.50;;;;;;5034685;27;20025;-70
2022/06/12 00:33:33;;;;;;;10.32;4.07;;;20.30;52.40;;;;;;5031394;27;20031;-73
2022/06/12 00:36:00;;;;;;;14.57;4.18;;;20.20;52.60;;;;;;5029497;27;20024;-72
2022/06/12 00:38:26;;;;;;;5.47;3.20;;;20.20;52.60;;;;;;5022991;27;20073;-73
2022/06/12 00:40:53;;;;;;;6.60;2.90;;;20.20;52.60;;;;;;5092255;28;20034;-71
2022/06/12 00:43:20;;;;;;;15.18;4.57;;;20.20;52.40;;;;;;5032487;27;20480;-71
2022/06/12 00:45:52;;;;;;;10.63;4.53;;;20.30;52.40;;;;;;5037037;27;20427;-72
2022/06/12 00:48:25;;;;;;;9.52;3.00;;;20.20;52.30;;;;;;5027630;27;20030;-71
2022/06/12 00:50:58;;;;;;;10.77;3.95;;;20.20;52.50;;;;;;5030274;27;20033;-70
2022/06/12 00:53:33;;;;;;;9.50;3.20;;;20.20;52.80;;;;;;5032697;27;20102;-70
2022/06/12 00:56:05;;;;;;;10.90;3.53;;;20.20;52.90;;;;;;5041964;27;20069;-72
2022/06/12 00:58:37;;;;;;;12.40;3.20;;;20.10;52.80;;;;;;5026659;27;20030;-70
2022/06/12 01:01:07;;;;;;;10.23;3.08;;;20.20;52.90;;;;;;5034953;27;20034;-71
2022/06/12 01:06:33;;;;;;;12.63;4.47;;;20.10;52.80;;;;;;5044575;27;20074;-72
2022/06/12 01:06:41;;;;;;;8.68;3.75;;;20.10;52.90;;;;;;5036913;27;20067;-72
2022/06/12 06:02:11;;;;;;;9.70;2.35;;;19.00;46.50;;;;;;5033116;27;20105;-74
2022/06/12 06:04:38;;;;;;;10.35;2.78;;;19.00;45.90;;;;;;5029736;28;20385;-70
2022/06/12 06:07:04;;;;;;;11.82;2.65;;;19.00;46.90;;;;;;5027074;28;20078;-71
2022/06/12 06:09:31;;;;;;;15.32;3.17;;;19.00;47.30;;;;;;5038927;27;20043;-72
2022/06/12 06:11:57;;;;;;;6.97;2.58;;;19.00;48.20;;;;;;5024744;28;20476;-70
2022/06/12 06:14:24;;;;;;;10.70;3.22;;;19.00;48.70;;;;;;5046252;28;20060;-71
2022/06/12 06:16:51;;;;;;;12.52;3.20;;;19.10;48.60;;;;;;5030170;28;20025;-70
2022/06/12 06:19:18;;;;;;;12.45;3.75;;;19.10;48.40;;;;;;5032975;28;20121;-70
2022/06/12 06:21:45;;;;;;;11.45;2.85;;;19.10;47.00;;;;;;5039717;27;20027;-70
2022/06/12 06:24:12;;;;;;;11.95;2.80;;;19.10;47.30;;;;;;5059098;27;20389;-70
2022/06/12 06:26:40;;;;;;;15.75;3.50;;;19.10;47.60;;;;;;5034402;27;20042;-70
2022/06/12 06:29:07;;;;;;;12.02;4.47;;;19.00;48.30;;;;;;5043203;27;20048;-70
2022/06/12 06:31:34;;;;;;;7.07;2.88;;;19.10;47.70;;;;;;5039711;27;20047;-71
2022/06/12 06:34:01;;;;;;;11.30;2.97;;;19.10;47.70;;;;;;5043471;27;20160;-69
2022/06/12 06:36:28;;;;;;;15.07;3.78;;;19.10;47.90;;;;;;5042441;27;20057;-70
2022/06/12 06:38:56;;;;;;;10.15;3.08;;;19.10;48.10;;;;;;5024887;27;20034;-70
2022/06/12 06:41:24;;;;;;;13.88;3.97;;;19.20;48.00;;;;;;5039152;27;20400;-70
2022/06/12 06:46:37;;;;;;;5.97;2.63;;;19.20;48.00;;;;;;5037408;27;20098;-70
2022/06/12 06:49:04;;;;;;;11.10;2.90;;;19.20;48.10;;;;;;5048556;27;20073;-71
2022/06/12 06:51:31;;;;;;;8.25;3.58;;;19.30;48.10;;;;;;5029956;27;20109;-72
2022/06/12 06:53:58;;;;;;;9.82;3.90;;;19.30;48.10;;;;;;5027904;27;20026;-71
2022/06/12 06:56:26;;;;;;;6.72;2.80;;;19.30;48.20;;;;;;5039587;27;20072;-71
2022/06/12 06:58:53;;;;;;;9.65;2.95;;;19.30;48.10;;;;;;5033973;27;20369;-71
2022/06/12 07:01:19;;;;;;;12.52;3.08;;;19.30;47.90;;;;;;5036204;27;20072;-71
2022/06/12 07:03:46;;;;;;;10.90;2.53;;;19.30;47.80;;;;;;5033356;27;20057;-70
2022/06/12 07:06:14;;;;;;;15.35;3.55;;;19.30;47.60;;;;;;5030570;27;20045;-70
2022/06/12 07:08:41;;;;;;;7.80;2.20;;;19.30;47.70;;;;;;5030648;27;20049;-72
2022/06/12 07:11:08;;;;;;;9.95;3.78;;;19.30;47.30;;;;;;5043088;27;20120;-69
2022/06/12 07:13:34;;;;;;;14.23;2.70;;;19.30;47.20;;;;;;5033259;27;20036;-69
2022/06/12 07:16:01;;;;;;;23.20;4.35;;;19.30;47.20;;;;;;5024478;27;20026;-68
2022/06/12 07:18:27;;;;;;;18.90;5.57;;;19.30;47.10;;;;;;5089813;27;20033;-70
2022/06/12 07:20:57;;;;;;;16.55;7.03;;;19.30;47.40;;;;;;5037192;27;20026;-70
2022/06/12 07:23:24;;;;;;;21.73;7.53;;;19.40;47.40;;;;;;5033108;27;20034;-72
2022/06/12 07:25:55;;;;;;;15.50;7.20;;;19.30;47.10;;;;;;5029509;27;20041;-69
2022/06/12 07:28:24;;;;;;;22.83;6.07;;;19.40;47.20;;;;;;5036389;27;20094;-74
2022/06/12 07:30:51;;;;;;;17.52;5.53;;;19.40;47.20;;;;;;5032001;27;20033;-73
2022/06/12 07:33:19;;;;;;;8.18;3.70;;;19.40;47.30;;;;;;5042804;27;20023;-75
2022/06/12 07:35:47;;;;;;;22.10;3.90;;;19.40;47.20;;;;;;5026728;27;20070;-73
2022/06/12 07:38:17;;;;;;;14.82;2.85;;;19.40;47.30;;;;;;5025815;27;20053;-73
2022/06/12 07:40:47;;;;;;;11.13;2.75;;;19.40;47.90;;;;;;5042967;27;20575;-71
2022/06/12 07:43:14;;;;;;;10.23;3.67;;;19.50;47.70;;;;;;5037545;27;20054;-72
2022/06/12 07:45:42;;;;;;;12.32;3.47;;;19.50;47.50;;;;;;5044056;27;20032;-74
2022/06/12 07:48:09;;;;;;;12.85;3.20;;;19.50;47.30;;;;;;5034321;27;20396;-73
2022/06/12 07:50:38;;;;;;;8.40;2.08;;;19.50;47.00;;;;;;5037631;27;20026;-72
2022/06/12 07:53:05;;;;;;;15.93;3.97;;;19.50;47.00;;;;;;5029448;27;20022;-76
2022/06/12 07:55:32;;;;;;;19.88;3.47;;;19.50;46.80;;;;;;5045347;27;20066;-71
2022/06/12 07:57:58;;;;;;;23.50;7.60;;;19.60;46.90;;;;;;5041260;27;20044;-72
2022/06/12 08:00:25;;;;;;;11.40;4.63;;;19.60;47.10;;;;;;5033084;27;20057;-73
2022/06/12 08:02:52;;;;;;;12.20;4.90;;;19.60;47.30;;;;;;5044902;27;20042;-75
2022/06/12 08:05:20;;;;;;;8.63;4.18;;;19.60;47.40;;;;;;5070080;27;20059;-72
2022/06/12 08:07:47;;;;;;;8.02;3.42;;;19.70;47.30;;;;;;5069196;27;20031;-72
2022/06/12 08:10:15;;;;;;;7.43;2.38;;;19.70;47.60;;;;;;5074470;27;20035;-70
2022/06/12 08:12:44;;;;;;;8.20;3.25;;;19.70;47.70;;;;;;5066966;27;20071;-74
2022/06/12 08:15:19;;;;;;;10.82;3.10;;;19.70;47.70;;;;;;5076768;27;20023;-71
2022/06/12 08:17:46;;;;;;;13.35;4.97;;;19.70;47.70;;;;;;5074440;28;20031;-72
2022/06/12 08:20:25;;;;;;;10.00;4.00;;;19.70;47.70;;;;;;5085268;27;20375;-72
2022/06/12 08:23:30;;;;;;;8.73;3.58;;;19.70;47.70;;;;;;5040425;27;20032;-73
2022/06/12 08:26:19;;;;;;;10.05;3.72;;;19.80;47.90;;;;;;5029161;27;20077;-69
2022/06/12 08:28:57;;;;;;;7.32;2.97;;;19.80;48.10;;;;;;5034331;27;20043;-70
2022/06/12 08:31:32;;;;;;;9.00;2.45;;;19.90;48.40;;;;;;5031329;27;20477;-70
2022/06/12 08:34:03;;;;;;;9.48;2.83;;;19.90;48.50;;;;;;5026898;27;20030;-69
2022/06/12 08:36:31;;;;;;;11.10;2.67;;;19.90;48.50;;;;;;5035588;27;20041;-76
2022/06/12 08:38:57;;;;;;;11.02;2.75;;;19.90;48.40;;;;;;5026838;27;20029;-71
2022/06/12 08:41:42;;;;;;;7.43;2.60;;;19.90;48.60;;;;;;5040160;27;20131;-69
2022/06/12 08:44:15;;;;;;;8.47;2.27;;;20.00;48.50;;;;;;5043790;27;20036;-71
2022/06/12 08:47:08;;;;;;;23.65;13.07;;;20.00;48.40;;;;;;5039745;27;20031;-69
2022/06/12 08:49:44;;;;;;;17.90;10.45;;;20.10;47.70;;;;;;5045988;27;20084;-71
2022/06/12 08:52:19;;;;;;;15.25;9.45;;;20.10;47.30;;;;;;5031794;27;20021;-71
2022/06/12 08:54:45;;;;;;;;;;;20.20;46.70;;;;;;5034816;27;20110;-71
2022/06/12 08:57:18;;;;;;;10.38;4.60;;;20.20;46.20;;;;;;5040972;27;19905;-70
2022/06/12 08:59:53;;;;;;;12.57;4.35;;;20.30;45.60;;;;;;5032255;27;20098;-71
2022/06/12 09:02:29;;;;;;;6.95;3.05;;;20.40;44.50;;;;;;5033224;28;20033;-70
2022/06/12 09:04:55;;;;;;;11.65;4.13;;;20.40;43.60;;;;;;5037505;27;20049;-71
2022/06/12 09:07:31;;;;;;;11.68;3.42;;;20.40;42.80;;;;;;5036992;27;20038;-72
2022/06/12 09:10:08;;;;;;;14.18;3.20;;;20.50;42.40;;;;;;5034814;27;20138;-70
2022/06/12 09:13:02;;;;;;;15.63;3.50;;;20.50;42.20;;;;;;5030881;27;20029;-71
2022/06/12 09:15:41;;;;;;;9.90;2.80;;;20.50;41.60;;;;;;5019395;27;20050;-71
2022/06/12 09:18:43;;;;;;;4.28;2.28;;;20.60;41.20;;;;;;5029061;27;20074;-70
2022/06/12 09:21:29;;;;;;;11.65;5.55;;;20.60;41.40;;;;;;5026244;27;20033;-73
2022/06/12 09:24:10;;;;;;;10.75;3.95;;;20.60;41.50;;;;;;5058934;27;20856;-72
2022/06/12 09:27:03;;;;;;;14.02;2.60;;;20.60;41.40;;;;;;5044233;27;20078;-71
2022/06/12 09:30:08;;;;;;;8.13;2.38;;;20.60;41.30;;;;;;5041363;27;20041;-70
2022/06/12 09:32:48;;;;;;;14.43;5.25;;;20.60;41.40;;;;;;5041154;27;20127;-73
2022/06/12 09:35:46;;;;;;;12.80;3.72;;;20.60;41.50;;;;;;5032687;27;20118;-71
2022/06/12 09:38:37;;;;;;;16.08;3.47;;;20.60;41.50;;;;;;5035460;27;20448;-71
2022/06/12 09:41:25;;;;;;;6.90;2.67;;;20.60;41.90;;;;;;5030698;28;20060;-70
2022/06/12 09:44:07;;;;;;;11.45;2.67;;;20.70;42.20;;;;;;5023903;28;20472;-73
2022/06/12 09:46:58;;;;;;;5.05;1.85;;;20.70;41.70;;;;;;5035802;27;20030;-72
2022/06/12 09:49:43;;;;;;;9.27;3.47;;;20.70;41.60;;;;;;5035755;27;20029;-70
2022/06/12 09:52:34;;;;;;;12.63;4.22;;;20.70;41.40;;;;;;5026832;27;20038;-73
2022/06/12 09:55:27;;;;;;;21.83;4.68;;;20.70;41.40;;;;;;5031064;28;20038;-71
2022/06/12 09:58:30;;;;;;;21.27;5.50;;;20.70;41.50;;;;;;5042684;27;20067;-73
2022/06/12 10:01:31;;;;;;;9.30;2.72;;;20.70;41.80;;;;;;5038932;27;20041;-70
2022/06/12 10:04:22;;;;;;;12.68;4.20;;;20.70;41.60;;;;;;5027625;27;20042;-73
2022/06/12 10:06:58;;;;;;;8.38;3.20;;;20.70;41.30;;;;;;5034029;28;20024;-72
2022/06/12 10:09:36;;;;;;;11.95;5.40;;;20.80;41.40;;;;;;5054480;27;20040;-69
2022/06/12 10:12:14;;;;;;;12.25;3.40;;;20.80;41.40;;;;;;5025445;28;20030;-72
2022/06/12 10:15:14;;;;;;;8.90;3.05;;;20.90;41.40;;;;;;5043025;28;20016;-67
2022/06/12 10:17:48;;;;;;;7.50;2.45;;;20.90;41.50;;;;;;5019755;28;20022;-71
2022/06/12 10:20:21;;;;;;;8.30;2.28;;;21.00;41.50;;;;;;5033581;28;20503;-69
2022/06/12 10:22:51;;;;;;;11.65;2.42;;;21.00;41.30;;;;;;5044727;28;20027;-68
2022/06/12 10:25:33;;;;;;;13.10;3.65;;;21.00;41.10;;;;;;5034031;28;20526;-69
2022/06/12 10:28:32;;;;;;;12.48;3.78;;;21.00;41.10;;;;;;5026527;28;20056;-69
2022/06/12 10:31:10;;;;;;;6.05;2.67;;;21.00;41.40;;;;;;5030883;28;20048;-70
2022/06/12 10:33:45;;;;;;;14.95;7.78;;;21.00;41.40;;;;;;5036879;28;20038;-72
2022/06/12 10:36:33;;;;;;;25.08;12.35;;;21.00;41.50;;;;;;5024822;28;20038;-69
2022/06/12 10:39:17;;;;;;;26.73;13.35;;;21.00;41.90;;;;;;5036553;28;20074;-69
2022/06/12 10:41:54;;;;;;;17.98;9.07;;;21.10;42.40;;;;;;5033699;28;20396;-70
2022/06/12 10:44:33;;;;;;;16.92;7.43;;;21.10;42.70;;;;;;5035973;28;20112;-67
2022/06/12 10:47:24;;;;;;;9.10;4.55;;;21.10;42.60;;;;;;5039322;28;20113;-69
2022/06/12 10:50:13;;;;;;;7.45;3.85;;;21.20;42.30;;;;;;5038146;28;20051;-69
2022/06/12 10:53:03;;;;;;;7.05;3.40;;;21.10;42.00;;;;;;5041401;28;20570;-70
2022/06/12 10:56:00;;;;;;;6.40;2.55;;;21.10;41.70;;;;;;5028439;28;20029;-69
2022/06/12 10:58:52;;;;;;;9.57;2.25;;;21.20;41.50;;;;;;5028502;28;20037;-71
2022/06/12 11:01:39;;;;;;;5.43;2.78;;;21.20;41.40;;;;;;5035195;28;20033;-68
2022/06/12 11:04:11;;;;;;;9.88;2.10;;;21.30;41.20;;;;;;5033388;28;20689;-69
2022/06/12 11:06:48;;;;;;;8.85;2.85;;;21.30;40.90;;;;;;5036629;28;20041;-68
2022/06/12 11:09:37;;;;;;;7.22;2.60;;;21.40;40.80;;;;;;5042756;27;20031;-68
2022/06/12 11:12:27;;;;;;;8.98;3.80;;;21.40;41.30;;;;;;5029999;27;20040;-70
2022/06/12 11:15:19;;;;;;;28.02;10.55;;;21.40;40.60;;;;;;5029642;27;20033;-68
2022/06/12 11:18:08;;;;;;;40.28;27.98;;;21.50;40.50;;;;;;5031039;27;20063;-68
2022/06/12 11:20:44;;;;;;;20.15;11.88;;;21.60;39.80;;;;;;5030639;27;20495;-68
2022/06/12 11:23:26;;;;;;;17.35;10.07;;;21.60;40.80;;;;;;5035257;27;20021;-70
2022/06/12 11:26:13;;;;;;;24.05;7.63;;;21.60;41.50;;;;;;5043725;27;20036;-69
2022/06/12 11:28:55;;;;;;;13.10;5.43;;;21.70;41.10;;;;;;5033355;27;20038;-69
2022/06/12 11:32:10;;;;;;;15.20;4.55;;;21.70;41.00;;;;;;5031678;27;20121;-68
2022/06/12 11:35:02;;;;;;;11.48;6.32;;;21.70;41.10;;;;;;5011908;27;20116;-73
2022/06/12 11:38:02;;;;;;;19.17;5.88;;;21.70;41.00;;;;;;5056052;27;20055;-71
2022/06/12 11:40:39;;;;;;;11.15;4.47;;;21.70;40.90;;;;;;5039155;27;20143;-69
2022/06/12 11:43:25;;;;;;;15.18;6.47;;;21.70;41.40;;;;;;5052677;27;20112;-76
2022/06/12 11:46:07;;;;;;;16.75;12.93;;;21.70;41.70;;;;;;5027467;27;20522;-69
2022/06/12 11:48:36;;;;;;;33.95;20.15;;;21.80;42.00;;;;;;5033828;27;20042;-73
2022/06/12 11:51:38;;;;;;;23.13;19.25;;;21.80;42.30;;;;;;5041310;27;20020;-73
2022/06/12 11:54:17;;;;;;;17.13;13.07;;;21.90;42.20;;;;;;4975715;28;20041;-72
2022/06/12 11:57:10;;;;;;;13.85;10.23;;;21.90;42.10;;;;;;5034911;27;20023;-73
2022/06/12 11:59:53;;;;;;;13.07;8.55;;;21.90;41.90;;;;;;5041443;27;20015;-73
2022/06/12 12:02:27;;;;;;;14.43;7.32;;;22.00;42.00;;;;;;5087403;28;20033;-71
2022/06/12 12:04:57;;;;;;;16.27;8.68;;;22.00;42.20;;;;;;5038168;27;20062;-73
2022/06/12 12:07:52;;;;;;;11.38;7.53;;;22.10;41.90;;;;;;5029880;27;20050;-71
2022/06/12 12:10:30;;;;;;;15.30;7.60;;;22.10;42.00;;;;;;5030121;27;20056;-74
2022/06/12 12:13:05;;;;;;;12.05;5.65;;;22.20;42.10;;;;;;5045211;27;20483;-75
2022/06/12 12:15:54;;;;;;;10.70;6.22;;;22.30;42.50;;;;;;5037735;27;20030;-72
2022/06/12 12:18:44;;;;;;;10.95;6.65;;;22.40;42.40;;;;;;5033826;28;20034;-76
2022/06/12 12:21:19;;;;;;;11.50;6.63;;;22.40;41.70;;;;;;5034197;27;20083;-74
2022/06/12 12:23:47;;;;;;;20.20;15.55;;;22.50;41.80;;;;;;5047073;27;20086;-74
2022/06/12 12:26:28;;;;;;;27.20;18.13;;;22.40;41.30;;;;;;5038431;27;20083;-72
2022/06/12 12:29:03;;;;;;;32.63;23.10;;;22.40;41.50;;;;;;5035329;27;20071;-76
2022/06/12 12:31:31;;;;;;;18.15;15.63;;;22.50;41.70;;;;;;5027717;27;20045;-76
2022/06/12 12:34:01;;;;;;;14.88;10.13;;;22.40;41.70;;;;;;5027546;27;20044;-74
2022/06/12 12:42:36;;;;;;;10.10;4.45;;;22.40;40.60;;;;;;5044522;27;20457;-74
2022/06/12 12:45:24;;;;;;;13.27;4.47;;;22.40;40.10;;;;;;5037912;27;20478;-75
2022/06/12 12:48:11;;;;;;;9.98;3.03;;;22.40;40.30;;;;;;5025497;27;20091;-74
2022/06/12 12:50:52;;;;;;;11.13;4.13;;;22.40;40.30;;;;;;5106472;27;20462;-75
2022/06/12 12:53:26;;;;;;;9.60;2.90;;;22.30;40.60;;;;;;5029155;27;20070;-76
2022/06/12 12:56:10;;;;;;;10.40;2.28;;;22.30;40.90;;;;;;5031033;27;20041;-77
2022/06/12 12:58:41;;;;;;;5.28;2.10;;;22.20;41.10;;;;;;5035960;27;20020;-73
2022/06/12 13:01:18;;;;;;;14.90;2.70;;;22.20;40.90;;;;;;5032796;27;20057;-76
2022/06/12 13:03:49;;;;;;;12.95;2.35;;;22.20;41.00;;;;;;5044736;27;20031;-75
2022/06/12 13:06:39;;;;;;;14.77;4.28;;;22.10;41.00;;;;;;5044519;27;20029;-74
2022/06/12 13:09:05;;;;;;;11.38;6.85;;;22.10;41.80;;;;;;4984179;28;20045;-73
2022/06/12 13:11:55;;;;;;;20.98;6.30;;;22.10;42.10;;;;;;5040471;27;20037;-74
2022/06/12 13:14:26;;;;;;;11.27;5.55;;;22.00;42.60;;;;;;5030357;27;20114;-74
2022/06/12 13:17:05;;;;;;;10.20;7.03;;;22.10;42.70;;;;;;5033851;27;20060;-77
2022/06/12 13:19:45;;;;;;;12.77;8.32;;;22.00;42.50;;;;;;5040517;27;20045;-76
2022/06/12 13:22:31;;;;;;;14.48;7.90;;;22.00;42.40;;;;;;5027513;28;20033;-74
2022/06/12 13:25:15;;;;;;;17.83;8.15;;;22.00;43.10;;;;;;5041842;27;20024;-74
2022/06/12 13:27:52;;;;;;;28.87;11.50;;;22.00;43.70;;;;;;5056496;27;20172;-75
2022/06/12 13:30:25;;;;;;;13.27;8.25;;;22.00;43.70;;;;;;5029850;27;20037;-74
2022/06/12 13:32:52;;;;;;;16.67;6.85;;;22.00;43.70;;;;;;5028663;27;20037;-81
2022/06/12 13:35:35;;;;;;;12.65;7.55;;;22.00;43.30;;;;;;5032340;27;20032;-75
2022/06/12 13:38:06;;;;;;;11.70;8.52;;;22.00;42.70;;;;;;5036342;27;20037;-73
2022/06/12 13:40:39;;;;;;;17.90;12.32;;;22.00;42.50;;;;;;5043791;27;20621;-74
2022/06/12 13:43:20;;;;;;;28.92;13.02;;;21.90;42.10;;;;;;5019462;28;20144;-80
2022/06/12 13:45:55;;;;;;;16.45;11.50;;;21.90;42.10;;;;;;5032822;27;20148;-72
2022/06/12 13:48:24;;;;;;;11.35;8.55;;;21.80;42.20;;;;;;5037495;28;20052;-72
2022/06/12 13:50:58;;;;;;;10.48;6.30;;;21.80;42.00;;;;;;5040698;27;20695;-72
2022/06/12 13:53:25;;;;;;;9.57;5.83;;;21.80;42.00;;;;;;5097357;28;20029;-72
2022/06/12 13:55:59;;;;;;;11.45;7.75;;;21.80;41.90;;;;;;5032561;27;20329;-72
2022/06/12 13:58:40;;;;;;;13.15;8.30;;;21.70;41.90;;;;;;5032964;27;20033;-74
2022/06/12 14:01:16;;;;;;;19.65;9.00;;;21.70;42.20;;;;;;5023764;28;20034;-73
2022/06/12 14:03:55;;;;;;;18.77;10.90;;;21.70;42.70;;;;;;5030742;27;20150;-71
2022/06/12 14:06:29;;;;;;;13.35;11.95;;;21.70;43.30;;;;;;5026024;27;20112;-73
2022/06/12 14:09:07;;;;;;;15.80;12.93;;;21.60;43.30;;;;;;5023982;28;20092;-75
2022/06/12 14:11:36;;;;;;;18.08;14.38;;;21.60;43.40;;;;;;5043004;28;20060;-72
2022/06/12 14:14:03;;;;;;;13.27;10.38;;;21.60;43.70;;;;;;5028682;28;20053;-72
2022/06/12 14:16:30;;;;;;;15.27;13.63;;;21.60;43.80;;;;;;5035625;28;20064;-72
2022/06/12 14:19:06;;;;;;;21.83;17.65;;;21.60;43.90;;;;;;5046873;28;20087;-72
2022/06/12 14:21:39;;;;;;;19.67;14.52;;;21.60;43.50;;;;;;5039721;28;20527;-74
2022/06/12 14:24:14;;;;;;;31.65;18.52;;;21.60;43.40;;;;;;5033456;28;20026;-72
2022/06/12 14:26:47;;;;;;;39.72;34.17;;;21.60;44.50;;;;;;5027981;28;20040;-75
2022/06/12 14:29:34;;;;;;;22.92;19.85;;;21.60;45.00;;;;;;5038287;28;20556;-72
2022/06/12 14:32:16;;;;;;;30.27;19.58;;;21.60;45.20;;;;;;5045806;28;20057;-72
2022/06/12 14:35:04;;;;;;;28.05;18.40;;;21.60;45.50;;;;;;5042089;28;20025;-71
2022/06/12 14:37:42;;;;;;;21.23;13.13;;;21.60;45.30;;;;;;5030386;28;20026;-72
2022/06/12 14:40:25;;;;;;;17.50;10.98;;;21.60;45.10;;;;;;5034866;28;20056;-71
2022/06/12 14:43:05;;;;;;;14.98;8.15;;;21.60;45.10;;;;;;5034948;27;20034;-69
2022/06/12 14:45:33;;;;;;;11.75;6.40;;;21.50;45.40;;;;;;5050369;27;20039;-71
2022/06/12 14:48:00;;;;;;;22.42;5.30;;;21.50;46.00;;;;;;5090360;28;20128;-71
2022/06/12 14:50:26;;;;;;;8.55;3.55;;;21.50;46.50;;;;;;5034004;27;20032;-71
2022/06/12 14:52:53;;;;;;;10.00;4.28;;;21.50;46.80;;;;;;5035989;27;20155;-71
2022/06/12 14:55:19;;;;;;;15.50;6.60;;;21.40;47.20;;;;;;5039208;27;20019;-70
2022/06/12 14:57:46;;;;;;;8.65;4.60;;;21.40;47.90;;;;;;5033848;27;20485;-71
2022/06/12 15:00:26;;;;;;;12.05;4.53;;;21.40;48.60;;;;;;5023970;27;20061;-71
2022/06/12 15:02:53;;;;;;;8.35;4.50;;;21.40;49.10;;;;;;5034594;27;20544;-71
2022/06/12 15:05:24;;;;;;;9.32;4.20;;;21.40;49.60;;;;;;5035106;27;20030;-72
2022/06/12 15:07:50;;;;;;;25.13;6.18;;;21.30;50.10;;;;;;5028076;27;20039;-70
2022/06/12 15:10:18;;;;;;;21.20;5.93;;;21.30;51.30;;;;;;5047560;27;20108;-74
2022/06/12 15:12:45;;;;;;;15.45;5.05;;;21.30;52.60;;;;;;5042492;27;20035;-71
2022/06/12 15:15:20;;;;;;;14.57;4.40;;;21.30;53.10;;;;;;5038296;27;20543;-70
2022/06/12 15:17:47;;;;;;;9.57;3.50;;;21.30;53.60;;;;;;5047782;27;20031;-70
2022/06/12 15:20:14;;;;;;;10.15;3.70;;;21.30;54.30;;;;;;5040184;27;20034;-71
2022/06/12 15:22:41;;;;;;;33.70;5.45;;;21.30;55.50;;;;;;5030298;27;20031;-71
2022/06/12 15:31:06;;;;;;;12.65;3.10;;;21.30;57.90;;;;;;5027235;27;20056;-71
2022/06/12 15:33:33;;;;;;;13.57;3.25;;;21.20;59.30;;;;;;5034237;27;20022;-71
2022/06/12 15:35:59;;;;;;;17.15;5.85;;;21.20;60.00;;;;;;5030811;27;20026;-72
2022/06/12 15:38:26;;;;;;;17.67;8.30;;;21.20;60.90;;;;;;5047036;27;20025;-72
2022/06/12 15:40:54;;;;;;;9.35;5.25;;;21.20;61.60;;;;;;5039624;27;20031;-71
2022/06/12 15:43:21;;;;;;;17.33;5.38;;;21.20;62.00;;;;;;5030760;27;20038;-72
2022/06/12 15:45:47;;;;;;;8.68;4.50;;;21.20;61.80;;;;;;5095232;27;20394;-73
2022/06/12 15:48:14;;;;;;;9.82;4.78;;;21.20;61.90;;;;;;5045717;27;20064;-72
2022/06/12 15:50:41;;;;;;;12.02;5.28;;;21.20;62.00;;;;;;5038890;27;20025;-72
2022/06/12 15:53:08;;;;;;;14.65;5.18;;;21.20;62.00;;;;;;5036455;27;20018;-72
2022/06/12 15:55:35;;;;;;;11.27;5.53;;;21.20;62.40;;;;;;5044172;27;20037;-72
2022/06/12 15:58:01;;;;;;;17.42;6.10;;;21.20;62.90;;;;;;5044891;27;20028;-71
2022/06/12 16:00:28;;;;;;;25.40;5.72;;;21.10;63.30;;;;;;5034214;27;20040;-71
2022/06/12 16:02:55;;;;;;;18.48;5.90;;;21.20;64.20;;;;;;5035831;27;20054;-72
2022/06/12 16:05:26;;;;;;;12.95;6.05;;;21.10;64.10;;;;;;5053342;27;20123;-71
2022/06/12 16:07:54;;;;;;;16.05;7.57;;;21.10;64.00;;;;;;5039046;27;20043;-72
2022/06/12 16:10:21;;;;;;;42.67;8.25;;;21.10;64.60;;;;;;5028920;27;20104;-69
2022/06/12 16:12:54;;;;;;;26.08;7.07;;;21.10;65.40;;;;;;5037631;27;20038;-71
2022/06/12 16:15:24;;;;;;;13.02;5.57;;;21.10;64.80;;;;;;5038558;27;20094;-72
2022/06/12 16:17:57;;;;;;;15.00;8.07;;;21.10;63.90;;;;;;5028923;27;20582;-72
2022/06/12 16:20:26;;;;;;;23.48;10.32;;;21.10;63.40;;;;;;5041848;27;20454;-72
2022/06/12 16:22:56;;;;;;;21.90;12.52;;;21.10;63.00;;;;;;5032346;27;20028;-71
2022/06/12 16:25:22;;;;;;;27.83;11.32;;;21.10;63.50;;;;;;5028219;27;20393;-71
2022/06/12 16:27:49;;;;;;;27.52;9.93;;;21.10;63.60;;;;;;5027835;27;20557;-71
2022/06/12 16:30:20;;;;;;;23.70;11.05;;;21.10;63.30;;;;;;5034307;27;20516;-72
2022/06/12 16:32:50;;;;;;;18.88;8.75;;;21.10;63.20;;;;;;5037393;27;20134;-73
2022/06/12 16:35:17;;;;;;;11.40;7.03;;;21.10;63.20;;;;;;5035258;28;20130;-72
2022/06/12 16:37:44;;;;;;;10.98;6.35;;;21.10;63.60;;;;;;5046759;27;20025;-72
2022/06/12 16:40:17;;;;;;;14.93;6.72;;;21.00;65.00;;;;;;5039520;27;20043;-71
2022/06/12 16:42:44;;;;;;;12.27;4.68;;;21.00;66.10;;;;;;5031574;27;20117;-71
2022/06/12 16:45:12;;;;;;;16.88;4.45;;;21.00;67.60;;;;;;5044670;27;20022;-72
2022/06/12 16:47:39;;;;;;;15.70;5.45;;;21.00;68.00;;;;;;5040912;27;20420;-73
2022/06/12 16:50:07;;;;;;;12.30;5.45;;;21.00;67.90;;;;;;5045169;27;20117;-71
2022/06/12 16:52:34;;;;;;;9.10;3.75;;;21.00;68.50;;;;;;5040313;27;20387;-73
2022/06/12 16:55:01;;;;;;;13.32;4.13;;;21.00;69.30;;;;;;5029251;27;20660;-72
2022/06/12 16:57:29;;;;;;;12.48;3.95;;;21.00;69.90;;;;;;5029667;27;20625;-73
2022/06/12 16:59:55;;;;;;;15.80;4.05;;;21.00;70.20;;;;;;5050411;27;20033;-72
2022/06/12 17:02:25;;;;;;;11.52;4.90;;;21.00;70.50;;;;;;5038347;27;20067;-72
2022/06/12 17:04:53;;;;;;;12.18;5.43;;;21.00;70.40;;;;;;5033441;27;20049;-73
2022/06/12 17:07:25;;;;;;;12.65;4.70;;;21.00;70.90;;;;;;5027706;27;20537;-70
2022/06/12 17:09:52;;;;;;;19.77;4.53;;;20.90;71.00;;;;;;5030827;27;20053;-72
2022/06/12 17:12:20;;;;;;;11.38;4.70;;;20.90;70.60;;;;;;5032327;27;20113;-71
2022/06/12 17:14:47;;;;;;;34.20;14.13;;;20.90;70.90;;;;;;5043829;27;20035;-70
2022/06/12 17:17:15;;;;;;;22.77;15.63;;;20.90;71.90;;;;;;5044450;27;20062;-72
2022/06/12 17:22:29;;;;;;;25.23;11.55;;;20.90;73.00;;;;;;5031614;27;20124;-70
2022/06/12 17:24:57;;;;;;;20.92;7.82;;;20.90;73.80;;;;;;5036284;27;20447;-72
2022/06/12 17:27:24;;;;;;;30.35;13.23;;;20.90;73.50;;;;;;5039858;27;20436;-72
2022/06/12 17:29:56;;;;;;;28.00;17.50;;;20.90;73.60;;;;;;5022541;28;20667;-72
2022/06/12 17:32:24;;;;;;;23.67;14.45;;;20.90;74.20;;;;;;5026409;27;20026;-72
2022/06/12 17:34:51;;;;;;;23.77;10.73;;;20.90;74.90;;;;;;5024445;28;20027;-72
2022/06/12 17:37:18;;;;;;;16.52;8.35;;;20.90;75.20;;;;;;5018065;27;20522;-72
2022/06/12 17:39:45;;;;;;;22.42;7.50;;;20.90;75.50;;;;;;5032292;27;20027;-71
2022/06/12 17:42:14;;;;;;;34.78;11.43;;;20.80;75.20;;;;;;5027818;27;20107;-71
2022/06/12 17:44:40;;;;;;;22.50;7.85;;;20.90;76.10;;;;;;5084138;28;20033;-71
2022/06/12 17:47:07;;;;;;;12.13;5.22;;;20.90;75.70;;;;;;5022282;27;20121;-72
2022/06/12 17:49:35;;;;;;;9.25;4.95;;;20.80;74.80;;;;;;5025404;27;20065;-71
2022/06/12 17:52:02;;;;;;;11.45;4.97;;;20.80;74.10;;;;;;5023050;28;20048;-72
2022/06/12 17:54:29;;;;;;;14.00;6.03;;;20.80;73.30;;;;;;5033729;27;20037;-72
2022/06/12 17:56:55;;;;;;;21.35;8.57;;;20.80;73.00;;;;;;5031331;27;20506;-73
2022/06/12 17:59:22;;;;;;;23.50;11.45;;;20.80;73.00;;;;;;5029764;27;20030;-73
2022/06/12 18:01:48;;;;;;;23.50;14.30;;;20.80;72.70;;;;;;5028522;27;20515;-72
2022/06/12 18:04:15;;;;;;;20.70;11.98;;;20.70;72.80;;;;;;5023440;27;20046;-72
2022/06/12 18:06:42;;;;;;;14.45;9.65;;;20.70;72.70;;;;;;5028436;27;20490;-73
2022/06/12 18:09:09;;;;;;;13.50;7.65;;;20.70;72.80;;;;;;5026334;28;20046;-74
2022/06/12 18:11:36;;;;;;;12.60;6.13;;;20.70;73.20;;;;;;5026629;27;20561;-73
2022/06/12 18:14:03;;;;;;;8.60;4.00;;;20.70;73.30;;;;;;5022092;28;20034;-74
2022/06/12 18:19:25;;;;;;;14.07;5.53;;;20.70;73.70;;;;;;5037435;28;20038;-74
2022/06/12 18:21:53;;;;;;;12.65;6.20;;;20.70;73.70;;;;;;5021211;28;20057;-74
2022/06/12 18:24:26;;;;;;;10.80;5.28;;;20.60;73.90;;;;;;5030219;28;20540;-72
2022/06/12 18:26:53;;;;;;;10.68;4.97;;;20.60;74.00;;;;;;5032437;28;20044;-72